This is the latest recevied weather packets stored in our database for station/object CA3VLN-10. If no packets are shown the sender has not sent any weather packets the latest 10 day(s).
| Time | Temp. | Humidity | Pressure | Rain* | Wind** | Luminosity | Snow |
|---|---|---|---|---|---|---|---|
| 1777418229 | 20° C | 37% | 1007.1 hPa | - | - | - | - |
| 1777417329 | 20° C | 36% | 1007.3 hPa | - | - | - | - |
| 1777416429 | 20.56° C | 35% | 1007.1 hPa | - | - | - | - |
| 1777415529 | 21.11° C | 34% | 1006.8 hPa | - | - | - | - |
| 1777414629 | 21.11° C | 33% | 1006.8 hPa | - | - | - | - |
| 1777413729 | 21.67° C | 31% | 1006.5 hPa | - | - | - | - |
| 1777412828 | 22.22° C | 31% | 1006.2 hPa | - | - | - | - |
| 1777411928 | 22.78° C | 30% | 1006.1 hPa | - | - | - | - |
| 1777411028 | 23.33° C | 29% | 1006 hPa | - | - | - | - |
| 1777410128 | 23.33° C | 28% | 1005.9 hPa | - | - | - | - |
| 1777409228 | 23.89° C | 28% | 1006 hPa | - | - | - | - |
| 1777408328 | 23.89° C | 28% | 1006 hPa | - | - | - | - |
| 1777407428 | 23.89° C | 27% | 1006.1 hPa | - | - | - | - |
| 1777406605 | 24.44° C | 27% | 1005.9 hPa | - | - | - | - |
| 1777406528 | 24.44° C | 27% | 1005.9 hPa | - | - | - | - |
| 1777405628 | 24.44° C | 27% | 1005.9 hPa | - | - | - | - |
| 1777404727 | 24.44° C | 27% | 1005.9 hPa | - | - | - | - |
| 1777403827 | 24.44° C | 27% | 1005.8 hPa | - | - | - | - |
| 1777402927 | 24.44° C | 27% | 1005.9 hPa | - | - | - | - |
| 1777402027 | 24.44° C | 27% | 1005.9 hPa | - | - | - | - |
| 1777401127 | 24.44° C | 27% | 1006 hPa | - | - | - | - |
| 1777400227 | 24.44° C | 27% | 1006.1 hPa | - | - | - | - |
| 1777399327 | 24.44° C | 27% | 1006.2 hPa | - | - | - | - |
| 1777398427 | 23.89° C | 27% | 1006.2 hPa | - | - | - | - |
| 1777397527 | 23.89° C | 28% | 1006.4 hPa | - | - | - | - |
* Rain since midnight (hover to see other rain measurements)
** Current wind speed in m/s (hover to see current wind gust speed)